Terminal Aerodrome Forecast
Issued by NWS Knoxville/Tri Cities, TN

Home | Current Version | Previous Version | Text Only | Print | Product List | Glossary On
Versions: 1 2 3 4 5 6 7 8 9 10 11 12 13 14 15 16 17 18 19 20 21 22 23 24 25 26 27 28 29 30 31 32 33 34 35 36 37 38 39 40
000
FTUS44 KMRX 241124
TAFTRI
TAF
KTRI 241124Z 2412/2512 VRB03KT P6SM SCT030 BKN250
     FM241500 13008KT P6SM SCT040 BKN120
     FM241700 18014G19KT P6SM VCTS BKN040CB
     FM242200 23012KT P6SM VCSH BKN045
     FM250300 26006KT P6SM VCSH OVC015
     FM250700 26005KT 5SM BR OVC005
     FM251100 25006KT 5SM BR OVC015=

USA.gov is the U.S. government's official web portal to all federal, state and local government web resources and services.